Time,TemperatureF,DewpointF,PressureIn,WindDirection,WindDirectionDegrees,WindSpeedMPH,WindSpeedGustMPH,Humidity,HourlyPrecipIn,Conditions,Clouds,dailyrainin,SoftwareType,DateUTC
2013-06-19 00:08:00,68.5,64.5,29.76,NE,45,2.2,-999.0,87,-99.99,,,0.00,Acu-Link.com,2013-06-19 04:08:00,
2013-06-19 00:24:00,67.8,64.1,29.76,ENE,67,4.2,-999.0,88,-99.99,,,0.00,Acu-Link.com,2013-06-19 04:24:00,
2013-06-19 00:39:00,67.5,64.5,29.76,NE,45,3.7,-999.0,90,-99.99,,,0.00,Acu-Link.com,2013-06-19 04:39:00,
2013-06-19 00:54:00,66.9,64.2,29.76,NE,45,4.2,-999.0,91,-99.99,,,0.00,Acu-Link.com,2013-06-19 04:54:00,
2013-06-19 01:09:00,66.6,64.2,29.76,NE,45,4.2,-999.0,92,-99.99,,,0.00,Acu-Link.com,2013-06-19 05:09:00,
2013-06-19 01:25:00,66.0,63.9,29.75,NE,45,5.8,-999.0,93,-99.99,,,0.00,Acu-Link.com,2013-06-19 05:25:00,
2013-06-19 01:40:00,65.7,63.6,29.76,East,90,2.7,-999.0,93,-99.99,,,0.00,Acu-Link.com,2013-06-19 05:40:00,
2013-06-19 01:55:00,64.8,63.6,29.76,ESE,112,1.7,-999.0,96,-99.99,,,0.00,Acu-Link.com,2013-06-19 05:55:00,
2013-06-19 02:10:00,64.2,63.6,29.76,East,90,2.7,-999.0,98,-99.99,,,0.00,Acu-Link.com,2013-06-19 06:10:00,
2013-06-19 02:25:00,64.0,63.4,29.76,East,90,3.7,-999.0,98,-99.99,,,0.00,Acu-Link.com,2013-06-19 06:25:00,
2013-06-19 02:41:00,63.9,63.6,29.77,ENE,67,4.2,-999.0,99,-99.99,,,0.00,Acu-Link.com,2013-06-19 06:41:00,
2013-06-19 02:56:00,63.5,63.2,29.77,East,90,5.3,-999.0,99,-99.99,,,0.00,Acu-Link.com,2013-06-19 06:56:00,
2013-06-19 03:11:00,63.9,62.7,29.77,ESE,112,5.3,-999.0,96,-99.99,,,0.00,Acu-Link.com,2013-06-19 07:11:00,
2013-06-19 03:26:00,63.5,62.3,29.77,East,90,4.7,-999.0,96,-99.99,,,0.00,Acu-Link.com,2013-06-19 07:26:00,
2013-06-19 03:41:00,63.1,61.9,29.77,ENE,67,5.3,-999.0,96,-99.99,,,0.00,Acu-Link.com,2013-06-19 07:41:00,
2013-06-19 03:57:00,62.8,61.9,29.78,East,90,4.7,-999.0,97,-99.99,,,0.00,Acu-Link.com,2013-06-19 07:57:00,
2013-06-19 04:12:00,62.4,61.8,29.78,NE,45,5.3,-999.0,98,-99.99,,,0.00,Acu-Link.com,2013-06-19 08:12:00,
2013-06-19 04:27:00,61.9,61.6,29.78,East,90,6.8,-999.0,99,-99.99,,,0.00,Acu-Link.com,2013-06-19 08:27:00,
2013-06-19 04:42:00,61.9,61.6,29.78,East,90,4.2,-999.0,99,-99.99,,,0.00,Acu-Link.com,2013-06-19 08:42:00,
2013-06-19 04:57:00,61.3,61.0,29.78,ESE,112,2.7,-999.0,99,-99.99,,,0.00,Acu-Link.com,2013-06-19 08:57:00,
2013-06-19 05:12:00,60.8,60.5,29.79,SE,135,1.7,-999.0,99,-99.99,,,0.00,Acu-Link.com,2013-06-19 09:12:00,
2013-06-19 05:27:00,60.3,60.0,29.79,East,90,3.2,-999.0,99,-99.99,,,0.00,Acu-Link.com,2013-06-19 09:27:00,
2013-06-19 05:43:00,59.7,59.4,29.80,ESE,112,1.1,-999.0,99,-99.99,,,0.00,Acu-Link.com,2013-06-19 09:43:00,
2013-06-19 05:58:00,59.5,59.2,29.81,ENE,67,3.7,-999.0,99,-99.99,,,0.00,Acu-Link.com,2013-06-19 09:58:00,
2013-06-19 06:13:00,59.4,59.1,29.81,East,90,2.2,-999.0,99,-99.99,,,0.00,Acu-Link.com,2013-06-19 10:13:00,
2013-06-19 06:28:00,59.2,58.9,29.82,ENE,67,2.2,-999.0,99,-99.99,,,0.00,Acu-Link.com,2013-06-19 10:28:00,
2013-06-19 06:43:00,59.2,58.9,29.83,NE,45,3.7,-999.0,99,-99.99,,,0.00,Acu-Link.com,2013-06-19 10:43:00,
2013-06-19 06:59:00,60.8,60.5,29.83,NNE,22,4.2,-999.0,99,-99.99,,,0.00,Acu-Link.com,2013-06-19 10:59:00,
2013-06-19 07:14:00,61.7,61.4,29.83,NE,45,1.7,-999.0,99,-99.99,,,0.00,Acu-Link.com,2013-06-19 11:14:00,
2013-06-19 07:29:00,62.8,62.5,29.84,NE,45,5.8,-999.0,99,-99.99,,,0.00,Acu-Link.com,2013-06-19 11:29:00,
2013-06-19 07:44:00,63.3,61.8,29.83,NE,45,8.3,-999.0,95,-99.99,,,0.00,Acu-Link.com,2013-06-19 11:44:00,
2013-06-19 07:59:00,64.0,61.9,29.84,East,90,4.7,-999.0,93,-99.99,,,0.00,Acu-Link.com,2013-06-19 11:59:00,
2013-06-19 08:14:00,65.5,62.8,29.84,ESE,112,6.3,-999.0,91,-99.99,,,0.00,Acu-Link.com,2013-06-19 12:14:00,
2013-06-19 08:29:00,66.2,63.2,29.85,ESE,112,6.8,-999.0,90,-99.99,,,0.00,Acu-Link.com,2013-06-19 12:29:00,
2013-06-19 08:44:00,67.8,63.5,29.86,NE,45,3.2,-999.0,86,-99.99,,,0.00,Acu-Link.com,2013-06-19 12:44:00,
2013-06-19 09:00:00,68.0,63.6,29.86,NE,45,4.2,-999.0,86,-99.99,,,0.00,Acu-Link.com,2013-06-19 13:00:00,
2013-06-19 09:15:00,69.6,63.9,29.86,SE,135,4.7,-999.0,82,-99.99,,,0.00,Acu-Link.com,2013-06-19 13:15:00,
2013-06-19 09:30:00,70.3,64.5,29.86,ENE,67,2.2,-999.0,82,-99.99,,,0.00,Acu-Link.com,2013-06-19 13:30:00,
2013-06-19 09:45:00,69.1,63.4,29.86,ESE,112,5.3,-999.0,82,-99.99,,,0.00,Acu-Link.com,2013-06-19 13:45:00,
2013-06-19 10:00:00,70.5,64.4,29.86,NE,45,5.3,-999.0,81,-99.99,,,0.00,Acu-Link.com,2013-06-19 14:00:00,
2013-06-19 10:15:00,71.2,64.0,29.87,NE,45,3.7,-999.0,78,-99.99,,,0.00,Acu-Link.com,2013-06-19 14:15:00,
2013-06-19 10:30:00,72.3,64.3,29.85,ESE,112,3.2,-999.0,76,-99.99,,,0.00,Acu-Link.com,2013-06-19 14:30:00,
2013-06-19 10:46:00,72.5,64.1,29.85,ESE,112,5.8,-999.0,75,-99.99,,,0.00,Acu-Link.com,2013-06-19 14:46:00,
2013-06-19 11:01:00,72.5,64.1,29.86,East,90,5.8,-999.0,75,-99.99,,,0.00,Acu-Link.com,2013-06-19 15:01:00,
2013-06-19 11:16:00,73.2,65.2,29.86,North,0,5.3,-999.0,76,-99.99,,,0.00,Acu-Link.com,2013-06-19 15:16:00,
2013-06-19 11:31:00,73.9,64.7,29.86,East,90,3.2,-999.0,73,-99.99,,,0.00,Acu-Link.com,2013-06-19 15:31:00,
2013-06-19 11:47:00,75.7,65.6,29.86,SSE,157,4.2,-999.0,71,-99.99,,,0.00,Acu-Link.com,2013-06-19 15:47:00,
2013-06-19 12:02:00,76.8,65.8,29.86,ESE,112,6.8,-999.0,69,-99.99,,,0.00,Acu-Link.com,2013-06-19 16:02:00,
2013-06-19 12:17:00,77.9,66.0,29.87,ENE,67,6.8,-999.0,67,-99.99,,,0.00,Acu-Link.com,2013-06-19 16:17:00,
2013-06-19 12:33:00,77.2,64.9,29.86,East,90,6.3,-999.0,66,-99.99,,,0.00,Acu-Link.com,2013-06-19 16:33:00,
2013-06-19 12:48:00,75.6,64.7,29.86,ENE,67,4.2,-999.0,69,-99.99,,,0.00,Acu-Link.com,2013-06-19 16:48:00,
2013-06-19 13:03:00,77.4,65.1,29.86,North,0,2.7,-999.0,66,-99.99,,,0.00,Acu-Link.com,2013-06-19 17:03:00,
2013-06-19 13:18:00,79.5,65.8,29.86,NE,45,6.8,-999.0,63,-99.99,,,0.00,Acu-Link.com,2013-06-19 17:18:00,
2013-06-19 13:34:00,77.9,65.2,29.84,NE,45,6.3,-999.0,65,-99.99,,,0.00,Acu-Link.com,2013-06-19 17:34:00,
2013-06-19 13:49:00,77.9,64.7,29.85,NNW,337,5.8,-999.0,64,-99.99,,,0.00,Acu-Link.com,2013-06-19 17:49:00,
2013-06-19 14:04:00,78.4,64.7,29.84,NE,45,7.3,-999.0,63,-99.99,,,0.00,Acu-Link.com,2013-06-19 18:04:00,
2013-06-19 14:19:00,80.4,65.7,29.84,ENE,67,1.7,-999.0,61,-99.99,,,0.00,Acu-Link.com,2013-06-19 18:19:00,
2013-06-19 14:34:00,81.1,66.4,29.83,ESE,112,4.2,-999.0,61,-99.99,,,0.00,Acu-Link.com,2013-06-19 18:34:00,
2013-06-19 14:50:00,80.2,65.5,29.83,East,90,4.7,-999.0,61,-99.99,,,0.00,Acu-Link.com,2013-06-19 18:50:00,
2013-06-19 15:05:00,80.2,65.5,29.82,NE,45,4.7,-999.0,61,-99.99,,,0.00,Acu-Link.com,2013-06-19 19:05:00,
2013-06-19 15:20:00,81.3,66.5,29.82,South,180,7.8,-999.0,61,-99.99,,,0.00,Acu-Link.com,2013-06-19 19:20:00,
2013-06-19 15:35:00,79.7,66.4,29.81,NW,315,5.3,-999.0,64,-99.99,,,0.00,Acu-Link.com,2013-06-19 19:35:00,
2013-06-19 15:50:00,81.1,66.8,29.82,NE,45,3.7,-999.0,62,-99.99,,,0.00,Acu-Link.com,2013-06-19 19:50:00,
2013-06-19 16:06:00,82.0,66.7,29.82,NE,45,7.3,-999.0,60,-99.99,,,0.00,Acu-Link.com,2013-06-19 20:06:00,
2013-06-19 16:21:00,82.4,66.1,29.81,South,180,4.7,-999.0,58,-99.99,,,0.00,Acu-Link.com,2013-06-19 20:21:00,
2013-06-19 16:36:00,81.7,66.0,29.82,NE,45,3.2,-999.0,59,-99.99,,,0.00,Acu-Link.com,2013-06-19 20:36:00,
2013-06-19 16:51:00,81.3,65.6,29.82,North,0,3.7,-999.0,59,-99.99,,,0.00,Acu-Link.com,2013-06-19 20:51:00,
2013-06-19 17:06:00,80.8,65.6,29.81,NNE,22,5.8,-999.0,60,-99.99,,,0.00,Acu-Link.com,2013-06-19 21:06:00,
2013-06-19 17:22:00,81.0,65.3,29.81,NNE,22,3.2,-999.0,59,-99.99,,,0.00,Acu-Link.com,2013-06-19 21:22:00,
2013-06-19 17:37:00,81.9,65.1,29.81,South,180,2.7,-999.0,57,-99.99,,,0.00,Acu-Link.com,2013-06-19 21:37:00,
2013-06-19 17:52:00,81.5,65.8,29.80,NE,45,5.3,-999.0,59,-99.99,,,0.00,Acu-Link.com,2013-06-19 21:52:00,
2013-06-19 18:07:00,81.5,65.3,29.80,ENE,67,2.7,-999.0,58,-99.99,,,0.00,Acu-Link.com,2013-06-19 22:07:00,
2013-06-19 18:23:00,82.8,65.5,29.80,NNE,22,3.7,-999.0,56,-99.99,,,0.00,Acu-Link.com,2013-06-19 22:23:00,
2013-06-19 18:38:00,83.1,65.8,29.80,WSW,247,1.1,-999.0,56,-99.99,,,0.00,Acu-Link.com,2013-06-19 22:38:00,
2013-06-19 18:53:00,83.5,66.1,29.80,NNE,22,4.7,-999.0,56,-99.99,,,0.00,Acu-Link.com,2013-06-19 22:53:00,
2013-06-19 19:08:00,83.7,66.3,29.81,ESE,112,2.7,-999.0,56,-99.99,,,0.00,Acu-Link.com,2013-06-19 23:08:00,
2013-06-19 19:23:00,79.5,64.4,29.81,NE,45,2.7,-999.0,60,-99.99,,,0.00,Acu-Link.com,2013-06-19 23:23:00,
2013-06-19 19:38:00,80.4,65.7,29.82,ESE,112,2.2,-999.0,61,-99.99,,,0.00,Acu-Link.com,2013-06-19 23:38:00,
2013-06-19 19:54:00,80.1,64.9,29.81,NE,45,3.2,-999.0,60,-99.99,,,0.00,Acu-Link.com,2013-06-19 23:54:00,
2013-06-19 20:09:00,79.5,64.9,29.82,ESE,112,3.7,-999.0,61,-99.99,,,0.00,Acu-Link.com,2013-06-20 00:09:00,
2013-06-19 20:24:00,78.4,64.7,29.82,NNE,22,2.7,-999.0,63,-99.99,,,0.00,Acu-Link.com,2013-06-20 00:24:00,
2013-06-19 20:39:00,78.1,64.9,29.82,NNE,22,2.2,-999.0,64,-99.99,,,0.00,Acu-Link.com,2013-06-20 00:39:00,
2013-06-19 20:55:00,76.8,65.0,29.83,NE,45,2.7,-999.0,67,-99.99,,,0.00,Acu-Link.com,2013-06-20 00:55:00,
2013-06-19 21:10:00,75.6,64.7,29.83,NE,45,2.2,-999.0,69,-99.99,,,0.00,Acu-Link.com,2013-06-20 01:10:00,
2013-06-19 21:25:00,74.5,64.5,29.83,NNE,22,0.0,-999.0,71,-99.99,,,0.00,Acu-Link.com,2013-06-20 01:25:00,
2013-06-19 21:41:00,73.4,64.2,29.83,NNE,22,2.2,-999.0,73,-99.99,,,0.00,Acu-Link.com,2013-06-20 01:41:00,
2013-06-19 21:56:00,72.7,64.3,29.83,NE,45,1.7,-999.0,75,-99.99,,,0.00,Acu-Link.com,2013-06-20 01:56:00,
2013-06-19 22:11:00,72.0,64.4,29.84,ESE,112,1.1,-999.0,77,-99.99,,,0.00,Acu-Link.com,2013-06-20 02:11:00,
2013-06-19 22:26:00,71.4,64.2,29.84,NNE,22,2.7,-999.0,78,-99.99,,,0.00,Acu-Link.com,2013-06-20 02:26:00,
2013-06-19 22:41:00,71.1,63.9,29.85,NNE,22,2.7,-999.0,78,-99.99,,,0.00,Acu-Link.com,2013-06-20 02:41:00,
2013-06-19 22:56:00,70.9,63.7,29.85,NNE,22,2.2,-999.0,78,-99.99,,,0.00,Acu-Link.com,2013-06-20 02:56:00,
2013-06-19 23:12:00,70.5,63.3,29.85,East,90,3.2,-999.0,78,-99.99,,,0.00,Acu-Link.com,2013-06-20 03:12:00,
2013-06-19 23:27:00,69.8,63.0,29.85,ESE,112,2.7,-999.0,79,-99.99,,,0.00,Acu-Link.com,2013-06-20 03:27:00,
2013-06-19 23:42:00,69.1,62.7,29.85,SE,135,1.7,-999.0,80,-99.99,,,0.00,Acu-Link.com,2013-06-20 03:42:00,
2013-06-19 23:57:00,68.4,62.7,29.86,East,90,2.2,-999.0,82,-99.99,,,0.00,Acu-Link.com,2013-06-20 03:57:00,